createdAt,value
2022-09-14T00:01:40.559Z,4.00
2022-09-14T00:04:12.227Z,4.45
2022-09-14T00:06:39.358Z,3.70
2022-09-14T00:09:07.092Z,3.53
2022-09-14T00:11:36.249Z,4.20
2022-09-14T00:14:04.384Z,3.47
2022-09-14T00:16:35.097Z,3.58
2022-09-14T00:19:06.439Z,4.00
2022-09-14T00:21:35.855Z,3.33
2022-09-14T00:24:04.334Z,3.33
2022-09-14T00:26:31.577Z,3.53
2022-09-14T00:28:59.964Z,3.72
2022-09-14T00:31:27.271Z,5.38
2022-09-14T00:33:54.760Z,3.72
2022-09-14T00:36:24.916Z,4.03
2022-09-14T00:38:52.875Z,4.25
2022-09-14T00:41:22.598Z,4.00
2022-09-14T00:43:58.778Z,2.80
2022-09-14T00:46:27.972Z,3.50
2022-09-14T00:48:58.796Z,3.33
2022-09-14T00:51:28.078Z,3.28
2022-09-14T00:53:56.019Z,3.78
2022-09-14T00:56:23.377Z,3.50
2022-09-14T00:58:55.032Z,3.13
2022-09-14T01:01:22.518Z,3.47
2022-09-14T01:03:49.957Z,2.95
2022-09-14T01:06:25.547Z,3.33
2022-09-14T01:09:26.975Z,3.40
2022-09-14T01:12:24.391Z,3.63
2022-09-14T01:15:20.491Z,3.35
2022-09-14T01:18:16.520Z,3.60
2022-09-14T01:21:08.769Z,3.33
2022-09-14T01:23:41.421Z,3.13
2022-09-14T01:26:41.526Z,3.33
2022-09-14T01:29:20.940Z,3.53
2022-09-14T01:32:18.157Z,3.55
2022-09-14T01:35:07.130Z,2.92
2022-09-14T01:37:41.592Z,3.15
2022-09-14T01:40:22.031Z,3.67
2022-09-14T01:42:55.597Z,3.00
2022-09-14T01:45:26.736Z,2.72
2022-09-14T01:48:07.144Z,3.05
2022-09-14T01:50:47.848Z,2.97
2022-09-14T01:53:35.390Z,3.30
2022-09-14T01:56:40.081Z,2.50
2022-09-14T01:59:42.860Z,3.08
2022-09-14T02:02:15.820Z,3.00
2022-09-14T02:05:05.634Z,3.20
2022-09-14T02:07:33.237Z,3.00
2022-09-14T02:10:00.187Z,2.80
2022-09-14T02:12:27.381Z,3.22
2022-09-14T02:14:54.947Z,3.25
2022-09-14T02:17:22.664Z,2.70
2022-09-14T02:20:05.814Z,2.25
2022-09-14T02:22:32.908Z,2.90
2022-09-14T02:25:00.342Z,2.95
2022-09-14T02:27:27.335Z,2.70
2022-09-14T02:29:54.488Z,2.45
2022-09-14T02:32:58.760Z,2.47
2022-09-14T02:35:39.777Z,2.80
2022-09-14T02:38:56.930Z,3.43
2022-09-14T02:41:33.148Z,2.70
2022-09-14T02:44:27.077Z,2.60
2022-09-14T02:47:24.603Z,2.50
2022-09-14T02:50:06.610Z,2.80
2022-09-14T02:52:42.454Z,3.08
2022-09-14T02:55:20.114Z,2.10
2022-09-14T02:58:03.105Z,3.30
2022-09-14T03:00:31.944Z,2.90
2022-09-14T03:02:59.605Z,2.97
2022-09-14T03:05:29.528Z,2.63
2022-09-14T03:07:56.775Z,2.53
2022-09-14T03:10:24.311Z,2.28
2022-09-14T03:12:52.280Z,2.72
2022-09-14T03:15:19.776Z,2.67
2022-09-14T03:17:51.141Z,2.38
2022-09-14T03:20:21.176Z,3.50
2022-09-14T03:22:48.903Z,2.60
2022-09-14T03:25:17.202Z,2.60
2022-09-14T03:27:44.318Z,3.33
2022-09-14T03:30:12.254Z,3.17
2022-09-14T03:32:39.338Z,3.10
2022-09-14T03:35:07.417Z,3.00
2022-09-14T03:38:16.987Z,2.85
2022-09-14T03:40:45.013Z,2.50
2022-09-14T03:43:15.326Z,2.60
2022-09-14T03:45:42.864Z,2.63
2022-09-14T03:48:11.991Z,1.70
2022-09-14T03:50:41.623Z,2.25
2022-09-14T03:53:09.597Z,1.63
2022-09-14T03:55:37.138Z,1.60
2022-09-14T03:58:05.668Z,1.70
2022-09-14T04:00:33.040Z,2.90
2022-09-14T04:03:01.222Z,2.08
2022-09-14T04:05:55.891Z,2.08
2022-09-14T04:08:23.335Z,2.17
2022-09-14T04:10:50.938Z,1.52
2022-09-14T04:13:17.660Z,1.58
2022-09-14T04:15:50.543Z,1.90
2022-09-14T04:18:17.331Z,1.70
2022-09-14T04:20:46.764Z,2.53
2022-09-14T04:23:13.469Z,1.83
2022-09-14T04:25:40.224Z,1.95
2022-09-14T04:28:22.370Z,1.90
2022-09-14T04:31:02.750Z,1.50
2022-09-14T04:33:31.382Z,2.08
2022-09-14T04:36:07.897Z,1.50
2022-09-14T04:38:37.218Z,1.88
2022-09-14T04:41:09.426Z,2.00
2022-09-14T04:43:36.485Z,1.52
2022-09-14T04:46:05.617Z,2.00
2022-09-14T04:48:33.751Z,1.40
2022-09-14T04:51:07.411Z,1.58
2022-09-14T04:53:35.690Z,1.50
2022-09-14T04:56:12.858Z,1.38
2022-09-14T04:58:43.061Z,1.60
2022-09-14T05:01:15.238Z,1.73
2022-09-14T05:03:43.333Z,1.50
2022-09-14T05:06:17.366Z,1.52
2022-09-14T05:08:44.765Z,1.58
2022-09-14T05:11:14.641Z,1.63
2022-09-14T05:13:42.702Z,2.03
2022-09-14T05:16:23.589Z,1.65
2022-09-14T05:18:51.749Z,1.52
2022-09-14T05:21:20.407Z,2.10
2022-09-14T05:23:47.745Z,1.80
2022-09-14T05:26:14.970Z,1.73
2022-09-14T05:28:41.974Z,1.85
2022-09-14T05:31:13.172Z,1.85
2022-09-14T05:33:40.086Z,2.08
2022-09-14T05:36:08.602Z,1.83
2022-09-14T05:38:37.499Z,1.70
2022-09-14T05:41:05.508Z,1.92
2022-09-14T05:43:32.537Z,2.65
2022-09-14T05:46:23.264Z,2.20
2022-09-14T05:48:52.211Z,2.25
2022-09-14T05:51:21.684Z,1.83
2022-09-14T05:53:53.643Z,1.83
2022-09-14T05:56:22.063Z,2.05
2022-09-14T05:58:49.429Z,1.70
2022-09-14T06:01:22.066Z,1.58
2022-09-14T06:03:49.898Z,2.10
2022-09-14T06:06:18.707Z,1.90
2022-09-14T06:08:45.918Z,2.10
2022-09-14T06:11:17.603Z,1.77
2022-09-14T06:13:46.716Z,1.73
2022-09-14T06:16:18.617Z,2.28
2022-09-14T06:18:46.730Z,1.70
2022-09-14T06:21:16.723Z,1.90
2022-09-14T06:23:44.358Z,1.67
2022-09-14T06:26:11.869Z,1.42
2022-09-14T06:28:39.220Z,1.50
2022-09-14T06:31:07.824Z,1.48
2022-09-14T06:33:34.975Z,1.75
2022-09-14T06:36:12.495Z,1.80
2022-09-14T06:38:40.345Z,1.92
2022-09-14T06:41:09.343Z,1.60
2022-09-14T06:43:38.962Z,1.35
2022-09-14T06:46:27.365Z,1.70
2022-09-14T06:49:05.030Z,1.52
2022-09-14T06:51:51.059Z,1.50
2022-09-14T06:54:18.696Z,1.40
2022-09-14T06:56:46.562Z,1.65
2022-09-14T06:59:15.712Z,1.60
2022-09-14T07:01:44.899Z,1.67
2022-09-14T07:04:12.458Z,1.70
2022-09-14T07:06:40.906Z,1.17
2022-09-14T07:09:08.061Z,1.63
2022-09-14T07:11:35.690Z,1.73
2022-09-14T07:14:02.803Z,1.30
2022-09-14T07:16:31.611Z,1.60
2022-09-14T07:19:02.396Z,1.85
2022-09-14T07:21:31.080Z,1.60
2022-09-14T07:23:57.957Z,2.05
2022-09-14T07:26:26.888Z,1.15
2022-09-14T07:28:59.353Z,1.85
2022-09-14T07:31:38.253Z,1.98
2022-09-14T07:34:05.929Z,1.20
2022-09-14T07:36:35.023Z,1.80
2022-09-14T07:39:05.031Z,1.83
2022-09-14T07:41:34.883Z,1.40
2022-09-14T07:44:03.547Z,1.50
2022-09-14T07:46:33.262Z,1.35
2022-09-14T07:49:02.157Z,1.30
2022-09-14T07:51:30.420Z,1.55
2022-09-14T07:53:59.707Z,1.85
2022-09-14T07:56:26.673Z,1.73
2022-09-14T07:59:07.099Z,1.55
2022-09-14T08:01:42.980Z,1.33
2022-09-14T08:04:09.960Z,1.65
2022-09-14T08:06:37.305Z,1.23
2022-09-14T08:09:08.479Z,2.05
2022-09-14T08:11:35.741Z,1.50
2022-09-14T08:14:05.784Z,1.70
2022-09-14T08:16:34.767Z,1.20
2022-09-14T08:19:03.975Z,1.65
2022-09-14T08:21:32.281Z,1.90
2022-09-14T08:24:02.391Z,1.40
2022-09-14T08:26:29.917Z,1.88
2022-09-14T08:28:57.294Z,1.08
2022-09-14T08:31:25.998Z,1.40
2022-09-14T08:33:55.267Z,1.15
2022-09-14T08:36:23.931Z,1.58
2022-09-14T08:38:50.755Z,1.23
2022-09-14T08:41:38.644Z,1.42
2022-09-14T08:44:14.873Z,1.20
2022-09-14T08:46:49.618Z,1.23
2022-09-14T08:49:39.039Z,1.38
2022-09-14T08:52:06.179Z,1.20
2022-09-14T08:54:33.388Z,1.23
2022-09-14T08:57:09.621Z,1.23
2022-09-14T09:00:03.182Z,1.40
2022-09-14T09:02:54.698Z,1.40
2022-09-14T09:05:36.725Z,1.35
2022-09-14T09:08:34.421Z,1.48
2022-09-14T09:11:02.677Z,1.50
2022-09-14T09:13:32.733Z,1.27
2022-09-14T09:16:03.267Z,1.73
2022-09-14T09:18:37.301Z,1.40
2022-09-14T09:21:17.526Z,2.30
2022-09-14T09:23:44.828Z,1.13
2022-09-14T09:26:27.590Z,1.52
2022-09-14T09:29:00.396Z,1.30
2022-09-14T09:31:51.811Z,1.35
2022-09-14T09:34:27.868Z,1.83
2022-09-14T09:36:55.996Z,1.15
2022-09-14T09:39:26.206Z,1.27
2022-09-14T09:42:21.779Z,1.52
2022-09-14T09:45:02.467Z,1.52
2022-09-14T09:47:41.843Z,1.20
2022-09-14T09:50:14.849Z,1.17
2022-09-14T09:53:01.177Z,1.25
2022-09-14T09:55:39.206Z,1.48
2022-09-14T09:58:27.051Z,0.95
2022-09-14T10:01:22.103Z,2.20
2022-09-14T10:04:15.064Z,1.38
2022-09-14T10:06:44.600Z,1.30
2022-09-14T10:09:20.370Z,1.83
2022-09-14T10:11:55.724Z,1.30
2022-09-14T10:14:25.822Z,1.55
2022-09-14T10:16:53.135Z,0.95
2022-09-14T10:19:24.507Z,1.30
2022-09-14T10:22:24.249Z,1.02
2022-09-14T10:27:38.611Z,1.27
2022-09-14T10:30:12.352Z,1.10
2022-09-14T10:32:42.485Z,1.58
2022-09-14T10:35:14.037Z,1.50
2022-09-14T10:38:10.734Z,1.13
2022-09-14T10:40:44.004Z,1.50
2022-09-14T10:43:27.347Z,1.85
2022-09-14T10:45:59.662Z,1.45
2022-09-14T10:48:45.364Z,1.55
2022-09-14T10:51:35.775Z,1.23
2022-09-14T10:54:30.138Z,1.35
2022-09-14T10:57:15.015Z,1.70
2022-09-14T11:00:20.152Z,1.73
2022-09-14T11:02:49.949Z,1.52
2022-09-14T11:05:19.468Z,1.25
2022-09-14T11:07:49.194Z,1.35
2022-09-14T11:10:32.667Z,1.63
2022-09-14T11:13:31.010Z,1.63
2022-09-14T11:16:29.770Z,1.50
2022-09-14T11:19:24.530Z,1.45
2022-09-14T11:22:19.293Z,2.20
2022-09-14T11:24:53.448Z,1.70
2022-09-14T11:27:29.167Z,1.40
2022-09-14T11:30:08.783Z,1.65
2022-09-14T11:33:03.933Z,1.60
2022-09-14T11:35:39.878Z,1.60
2022-09-14T11:38:20.711Z,1.20
2022-09-14T11:40:57.261Z,1.05
2022-09-14T11:43:56.719Z,1.83
2022-09-14T11:48:55.099Z,1.55
2022-09-14T11:51:28.569Z,1.55
2022-09-14T11:53:55.598Z,1.42
2022-09-14T11:56:29.576Z,1.27
2022-09-14T11:58:59.386Z,1.20
2022-09-14T12:01:28.364Z,1.35
2022-09-14T12:04:16.984Z,1.52
2022-09-14T12:06:52.990Z,1.50
2022-09-14T12:09:24.565Z,1.60
2022-09-14T12:11:56.575Z,1.08
2022-09-14T12:14:35.904Z,1.65
2022-09-14T12:20:28.738Z,1.20
2022-09-14T12:23:11.315Z,1.25
2022-09-14T12:25:39.894Z,1.17
2022-09-14T12:28:47.963Z,1.85
2022-09-14T12:31:30.055Z,2.83
2022-09-14T12:34:05.987Z,1.55
2022-09-14T12:36:32.674Z,1.38
2022-09-14T12:38:59.593Z,1.50
2022-09-14T12:41:46.363Z,1.58
2022-09-14T12:44:43.130Z,1.60
2022-09-14T12:47:28.756Z,1.95
2022-09-14T12:49:57.857Z,1.05
2022-09-14T12:53:03.219Z,1.23
2022-09-14T12:55:57.260Z,1.77
2022-09-14T12:58:56.705Z,2.58
2022-09-14T13:01:32.749Z,1.33
2022-09-14T13:03:59.681Z,1.50
2022-09-14T13:06:40.671Z,1.63
2022-09-14T13:09:20.440Z,1.52
2022-09-14T13:11:53.268Z,1.55
2022-09-14T13:14:22.721Z,1.80
2022-09-14T13:16:51.546Z,1.40
2022-09-14T13:19:29.648Z,1.67
2022-09-14T13:21:59.041Z,1.70
2022-09-14T13:24:34.907Z,1.60
2022-09-14T13:27:03.334Z,1.20
2022-09-14T13:29:31.185Z,1.52
2022-09-14T13:32:03.390Z,1.45
2022-09-14T13:34:34.500Z,2.30
2022-09-14T13:37:02.123Z,1.48
2022-09-14T13:39:30.251Z,1.45
2022-09-14T13:41:58.451Z,0.88
2022-09-14T13:44:34.610Z,1.65
2022-09-14T13:47:05.712Z,1.40
2022-09-14T13:49:35.499Z,1.35
2022-09-14T13:52:33.991Z,1.30
2022-09-14T13:55:15.193Z,1.40
2022-09-14T13:58:04.868Z,1.50
2022-09-14T14:00:33.207Z,1.02
2022-09-14T14:03:04.949Z,1.42
2022-09-14T14:05:35.171Z,1.50
2022-09-14T14:08:04.770Z,1.40
2022-09-14T14:10:37.267Z,1.40
2022-09-14T14:13:05.326Z,1.75
2022-09-14T14:15:40.022Z,1.77
2022-09-14T14:18:34.890Z,1.30
2022-09-14T14:21:14.239Z,0.63
2022-09-14T14:23:56.720Z,0.50
2022-09-14T14:26:29.207Z,0.47
2022-09-14T14:29:08.393Z,0.52
2022-09-14T14:31:35.391Z,0.55
2022-09-14T14:34:18.634Z,0.65
2022-09-14T14:36:47.217Z,0.70
2022-09-14T14:39:14.525Z,0.65
2022-09-14T14:41:41.460Z,0.52
2022-09-14T14:44:12.851Z,0.63
2022-09-14T14:46:42.284Z,0.57
2022-09-14T14:49:13.917Z,0.82
2022-09-14T14:54:08.763Z,1.15
2022-09-14T14:56:36.342Z,2.08
2022-09-14T14:59:03.296Z,1.50
2022-09-14T15:01:30.215Z,1.20
2022-09-14T15:03:57.130Z,1.50
2022-09-14T15:06:27.367Z,1.25
2022-09-14T15:08:56.009Z,1.50
2022-09-14T15:11:23.072Z,1.60
2022-09-14T15:13:50.210Z,1.15
2022-09-14T15:16:17.605Z,1.33
2022-09-14T15:18:44.969Z,1.38
2022-09-14T15:21:11.779Z,1.48
2022-09-14T15:23:39.021Z,1.38
2022-09-14T15:26:05.951Z,1.30
2022-09-14T15:28:35.869Z,1.83
2022-09-14T15:31:07.120Z,1.70
2022-09-14T15:33:34.769Z,1.92
2022-09-14T15:36:01.778Z,1.38
2022-09-14T15:38:28.518Z,2.03
2022-09-14T15:40:55.430Z,2.10
2022-09-14T15:43:22.233Z,2.03
2022-09-14T15:45:49.384Z,1.45
2022-09-14T15:48:18.093Z,1.52
2022-09-14T15:50:47.142Z,1.00
2022-09-14T15:53:18.396Z,1.30
2022-09-14T15:55:45.858Z,1.27
2022-09-14T15:58:12.814Z,1.42
2022-09-14T16:00:44.057Z,1.55
2022-09-14T16:03:12.096Z,1.75
2022-09-14T16:05:39.895Z,1.73
2022-09-14T16:08:06.908Z,1.30
2022-09-14T16:10:33.725Z,1.50
2022-09-14T16:13:00.541Z,1.27
2022-09-14T16:15:27.388Z,1.73
2022-09-14T16:17:55.440Z,1.30
2022-09-14T16:20:22.642Z,1.40
2022-09-14T16:22:50.042Z,1.45
2022-09-14T16:25:17.277Z,2.00
2022-09-14T16:27:44.334Z,1.27
2022-09-14T16:30:11.500Z,1.30
2022-09-14T16:32:38.411Z,1.40
2022-09-14T16:35:08.067Z,1.25
2022-09-14T16:37:35.138Z,1.25
2022-09-14T16:40:03.267Z,1.40
2022-09-14T16:42:30.069Z,1.30
2022-09-14T16:44:56.893Z,1.10
2022-09-14T16:47:25.767Z,1.38
2022-09-14T16:49:53.306Z,1.42
2022-09-14T16:52:20.184Z,1.17
2022-09-14T16:54:47.006Z,1.60
2022-09-14T16:57:13.907Z,1.23
2022-09-14T16:59:40.765Z,1.25
2022-09-14T17:02:11.046Z,1.25
2022-09-14T17:04:37.939Z,1.30
2022-09-14T17:07:05.102Z,1.20
2022-09-14T17:09:33.108Z,1.00
2022-09-14T17:12:01.646Z,1.08
2022-09-14T17:14:31.226Z,0.98
2022-09-14T17:16:59.028Z,1.20
2022-09-14T17:19:26.935Z,1.88
2022-09-14T17:21:54.260Z,1.05
2022-09-14T17:24:21.745Z,1.00
2022-09-14T17:26:48.996Z,1.05
2022-09-14T17:29:15.958Z,1.25
2022-09-14T17:31:44.210Z,1.20
2022-09-14T17:34:13.925Z,1.00
2022-09-14T17:36:40.749Z,0.90
2022-09-14T17:39:11.638Z,1.05
2022-09-14T17:41:41.123Z,1.25
2022-09-14T17:44:11.617Z,1.25
2022-09-14T17:46:45.993Z,0.90
2022-09-14T17:51:50.252Z,1.33
2022-09-14T17:54:17.988Z,1.00
2022-09-14T17:56:45.309Z,1.65
2022-09-14T17:59:14.856Z,1.10
2022-09-14T18:01:41.974Z,1.33
2022-09-14T18:04:13.127Z,1.50
2022-09-14T18:06:43.023Z,0.98
2022-09-14T18:09:15.028Z,1.40
2022-09-14T18:11:42.229Z,1.48
2022-09-14T18:14:12.836Z,1.40
2022-09-14T18:16:40.810Z,1.98
2022-09-14T18:19:07.717Z,1.48
2022-09-14T18:21:34.458Z,2.17
2022-09-14T18:24:01.586Z,2.17
2022-09-14T18:26:28.452Z,2.10
2022-09-14T18:28:58.893Z,2.45
2022-09-14T18:31:26.237Z,2.92
2022-09-14T18:33:55.766Z,2.38
2022-09-14T18:36:22.749Z,2.30
2022-09-14T18:38:49.848Z,2.60
2022-09-14T18:41:17.832Z,3.08
2022-09-14T18:43:46.194Z,3.22
2022-09-14T18:46:14.345Z,2.60
2022-09-14T18:48:43.635Z,2.63
2022-09-14T18:51:12.290Z,3.03
2022-09-14T18:53:39.904Z,2.75
2022-09-14T18:56:09.782Z,2.60
2022-09-14T18:58:38.514Z,2.47
2022-09-14T19:01:05.661Z,2.83
2022-09-14T19:03:33.207Z,3.00
2022-09-14T19:06:08.901Z,2.92
2022-09-14T19:08:39.657Z,2.75
2022-09-14T19:11:29.127Z,3.13
2022-09-14T19:14:09.351Z,2.63
2022-09-14T19:16:37.950Z,2.05
2022-09-14T19:19:05.868Z,2.72
2022-09-14T19:21:32.775Z,2.50
2022-09-14T19:24:00.750Z,2.58
2022-09-14T19:26:30.869Z,2.55
2022-09-14T19:29:00.637Z,2.75
2022-09-14T19:31:30.409Z,2.60
2022-09-14T19:34:02.055Z,3.15
2022-09-14T19:36:29.631Z,2.58
2022-09-14T19:39:01.621Z,3.20
2022-09-14T19:41:29.784Z,3.33
2022-09-14T19:43:56.598Z,3.17
2022-09-14T19:46:23.594Z,3.30
2022-09-14T19:48:50.687Z,2.50
2022-09-14T19:51:23.443Z,4.10
2022-09-14T19:53:51.800Z,3.25
2022-09-14T19:56:21.702Z,3.33
2022-09-14T19:58:50.801Z,3.40
2022-09-14T20:01:19.406Z,3.80
2022-09-14T20:03:48.006Z,4.22
2022-09-14T20:06:22.681Z,4.47
2022-09-14T20:08:56.710Z,3.60
2022-09-14T20:11:25.281Z,3.65
2022-09-14T20:13:59.168Z,4.75
2022-09-14T20:16:29.262Z,3.97
2022-09-14T20:19:02.958Z,4.10
2022-09-14T20:21:29.664Z,4.28
2022-09-14T20:24:15.638Z,3.78
2022-09-14T20:26:43.669Z,3.97
2022-09-14T20:29:11.167Z,3.28
2022-09-14T20:31:38.205Z,3.15
2022-09-14T20:34:05.239Z,3.10
2022-09-14T20:36:32.550Z,2.83
2022-09-14T20:38:59.913Z,2.75
2022-09-14T20:41:33.332Z,3.47
2022-09-14T20:44:00.655Z,3.45
2022-09-14T20:46:35.058Z,2.65
2022-09-14T20:49:04.242Z,2.47
2022-09-14T20:51:31.081Z,2.85
2022-09-14T20:53:58.328Z,2.38
2022-09-14T20:56:27.308Z,2.60
2022-09-14T20:58:56.045Z,2.83
2022-09-14T21:01:25.534Z,2.53
2022-09-14T21:03:53.543Z,2.35
2022-09-14T21:06:23.607Z,2.00
2022-09-14T21:08:51.033Z,2.13
2022-09-14T21:11:21.801Z,2.25
2022-09-14T21:13:49.587Z,1.77
2022-09-14T21:16:27.722Z,2.08
2022-09-14T21:18:57.618Z,2.83
2022-09-14T21:21:24.607Z,2.05
2022-09-14T21:23:52.646Z,2.22
2022-09-14T21:26:20.226Z,1.95
2022-09-14T21:28:47.603Z,1.80
2022-09-14T21:31:19.780Z,1.95
2022-09-14T21:33:50.236Z,2.00
2022-09-14T21:36:22.479Z,2.63
2022-09-14T21:38:50.720Z,1.55
2022-09-14T21:41:18.909Z,2.25
2022-09-14T21:43:46.046Z,2.00
2022-09-14T21:46:12.931Z,1.90
2022-09-14T21:48:39.974Z,1.83
2022-09-14T21:51:23.498Z,1.65
2022-09-14T21:53:55.971Z,1.85
2022-09-14T21:56:25.227Z,1.60
2022-09-14T21:58:54.116Z,1.42
2022-09-14T22:01:22.234Z,1.65
2022-09-14T22:03:51.524Z,1.60
2022-09-14T22:06:20.559Z,1.55
2022-09-14T22:08:49.137Z,1.50
2022-09-14T22:11:25.712Z,1.48
2022-09-14T22:14:03.915Z,1.67
2022-09-14T22:16:35.028Z,1.83
2022-09-14T22:19:04.242Z,1.73
2022-09-14T22:21:33.603Z,1.63
2022-09-14T22:24:03.001Z,1.33
2022-09-14T22:26:31.411Z,2.13
2022-09-14T22:28:59.198Z,1.60
2022-09-14T22:31:27.437Z,2.03
2022-09-14T22:33:56.112Z,1.95
2022-09-14T22:36:23.152Z,1.95
2022-09-14T22:38:49.978Z,1.67
2022-09-14T22:41:19.483Z,1.40
2022-09-14T22:43:46.736Z,1.27
2022-09-14T22:46:14.230Z,1.83
2022-09-14T22:48:41.341Z,1.73
2022-09-14T22:51:11.092Z,1.40
2022-09-14T22:53:38.240Z,1.42
2022-09-14T22:56:18.440Z,1.45
2022-09-14T22:58:46.274Z,1.63
2022-09-14T23:01:16.232Z,1.40
2022-09-14T23:03:43.282Z,1.60
2022-09-14T23:06:10.832Z,1.67
2022-09-14T23:08:38.245Z,1.00
2022-09-14T23:11:07.839Z,1.20
2022-09-14T23:13:39.710Z,1.40
2022-09-14T23:18:40.779Z,1.42
2022-09-14T23:21:07.742Z,1.08
2022-09-14T23:23:34.863Z,1.35
2022-09-14T23:26:06.763Z,1.15
2022-09-14T23:28:34.309Z,1.45
2022-09-14T23:31:01.599Z,1.05
2022-09-14T23:33:29.383Z,0.85
2022-09-14T23:35:56.527Z,1.20
2022-09-14T23:38:24.086Z,1.00
2022-09-14T23:40:50.855Z,1.27
2022-09-14T23:43:18.718Z,1.10
2022-09-14T23:45:46.991Z,1.02
2022-09-14T23:48:14.933Z,1.35
2022-09-14T23:50:42.114Z,1.13
2022-09-14T23:53:09.002Z,1.20
2022-09-14T23:55:35.841Z,1.13
2022-09-14T23:58:02.933Z,1.08
